sensor_id;sensor_type;location;lat;lon;timestamp;P1;durP1;ratioP1;P2;durP2;ratioP2
74593;SDS011;63097;51.872;4.460;2023-05-10T00:01:32;94.93;;;27.95;;
74593;SDS011;63097;51.872;4.460;2023-05-10T00:03:58;97.80;;;29.88;;
74593;SDS011;63097;51.872;4.460;2023-05-10T00:06:23;98.43;;;28.27;;
74593;SDS011;63097;51.872;4.460;2023-05-10T00:08:48;82.75;;;26.05;;
74593;SDS011;63097;51.872;4.460;2023-05-10T00:11:14;76.72;;;26.55;;
74593;SDS011;63097;51.872;4.460;2023-05-10T00:13:40;75.80;;;24.40;;
74593;SDS011;63097;51.872;4.460;2023-05-10T00:16:05;82.00;;;25.15;;
74593;SDS011;63097;51.872;4.460;2023-05-10T00:18:30;75.25;;;25.65;;
74593;SDS011;63097;51.872;4.460;2023-05-10T00:20:56;82.35;;;27.30;;
74593;SDS011;63097;51.872;4.460;2023-05-10T00:23:21;86.97;;;28.42;;
74593;SDS011;63097;51.872;4.460;2023-05-10T00:25:46;77.50;;;26.70;;
74593;SDS011;63097;51.872;4.460;2023-05-10T00:28:12;92.68;;;27.75;;
74593;SDS011;63097;51.872;4.460;2023-05-10T00:30:37;77.32;;;25.85;;
74593;SDS011;63097;51.872;4.460;2023-05-10T00:33:02;85.95;;;27.13;;
74593;SDS011;63097;51.872;4.460;2023-05-10T00:35:28;90.07;;;28.25;;
74593;SDS011;63097;51.872;4.460;2023-05-10T00:37:53;88.60;;;27.83;;
74593;SDS011;63097;51.872;4.460;2023-05-10T00:40:18;84.15;;;27.25;;
74593;SDS011;63097;51.872;4.460;2023-05-10T00:42:44;72.65;;;25.30;;
74593;SDS011;63097;51.872;4.460;2023-05-10T00:45:09;84.47;;;28.23;;
74593;SDS011;63097;51.872;4.460;2023-05-10T00:47:34;90.25;;;27.48;;
74593;SDS011;63097;51.872;4.460;2023-05-10T00:50:00;103.93;;;28.42;;
74593;SDS011;63097;51.872;4.460;2023-05-10T00:52:25;82.88;;;27.83;;
74593;SDS011;63097;51.872;4.460;2023-05-10T00:54:54;81.28;;;27.35;;
74593;SDS011;63097;51.872;4.460;2023-05-10T00:57:21;77.00;;;26.35;;
74593;SDS011;63097;51.872;4.460;2023-05-10T00:59:47;89.07;;;28.58;;
74593;SDS011;63097;51.872;4.460;2023-05-10T01:02:13;85.43;;;26.98;;
74593;SDS011;63097;51.872;4.460;2023-05-10T01:04:38;79.20;;;26.00;;
74593;SDS011;63097;51.872;4.460;2023-05-10T01:07:03;66.40;;;24.45;;
74593;SDS011;63097;51.872;4.460;2023-05-10T01:09:29;93.47;;;27.77;;
74593;SDS011;63097;51.872;4.460;2023-05-10T01:11:54;81.30;;;27.05;;
74593;SDS011;63097;51.872;4.460;2023-05-10T01:14:19;81.72;;;27.33;;
74593;SDS011;63097;51.872;4.460;2023-05-10T01:16:46;82.75;;;27.98;;
74593;SDS011;63097;51.872;4.460;2023-05-10T01:19:23;75.50;;;26.38;;
74593;SDS011;63097;51.872;4.460;2023-05-10T01:35:35;82.88;;;26.70;;
74593;SDS011;63097;51.872;4.460;2023-05-10T01:38:16;99.13;;;28.15;;
74593;SDS011;63097;51.872;4.460;2023-05-10T01:46:40;89.68;;;26.35;;
74593;SDS011;63097;51.872;4.460;2023-05-10T01:49:08;80.65;;;26.38;;
74593;SDS011;63097;51.872;4.460;2023-05-10T01:51:41;81.25;;;25.98;;
74593;SDS011;63097;51.872;4.460;2023-05-10T01:54:12;73.07;;;25.00;;
74593;SDS011;63097;51.872;4.460;2023-05-10T01:56:38;84.03;;;25.63;;
74593;SDS011;63097;51.872;4.460;2023-05-10T01:59:12;88.50;;;24.70;;
74593;SDS011;63097;51.872;4.460;2023-05-10T02:01:41;80.25;;;25.80;;
74593;SDS011;63097;51.872;4.460;2023-05-10T02:04:09;87.60;;;25.85;;
74593;SDS011;63097;51.872;4.460;2023-05-10T02:06:36;73.10;;;25.42;;
74593;SDS011;63097;51.872;4.460;2023-05-10T02:09:03;82.70;;;26.45;;
74593;SDS011;63097;51.872;4.460;2023-05-10T02:11:30;92.28;;;26.58;;
74593;SDS011;63097;51.872;4.460;2023-05-10T02:13:57;82.18;;;26.77;;
74593;SDS011;63097;51.872;4.460;2023-05-10T02:16:23;78.20;;;22.83;;
74593;SDS011;63097;51.872;4.460;2023-05-10T02:18:51;84.40;;;24.77;;
74593;SDS011;63097;51.872;4.460;2023-05-10T02:21:19;80.68;;;25.08;;
74593;SDS011;63097;51.872;4.460;2023-05-10T02:23:46;83.88;;;26.80;;
74593;SDS011;63097;51.872;4.460;2023-05-10T02:26:13;77.22;;;23.00;;
74593;SDS011;63097;51.872;4.460;2023-05-10T02:28:40;66.10;;;23.33;;
74593;SDS011;63097;51.872;4.460;2023-05-10T02:31:07;66.88;;;22.30;;
74593;SDS011;63097;51.872;4.460;2023-05-10T02:33:32;66.63;;;24.80;;
74593;SDS011;63097;51.872;4.460;2023-05-10T02:35:59;72.95;;;25.48;;
74593;SDS011;63097;51.872;4.460;2023-05-10T02:38:27;70.72;;;24.83;;
74593;SDS011;63097;51.872;4.460;2023-05-10T02:40:53;76.63;;;25.23;;
74593;SDS011;63097;51.872;4.460;2023-05-10T02:43:20;65.53;;;25.00;;
74593;SDS011;63097;51.872;4.460;2023-05-10T02:45:48;56.92;;;23.08;;
74593;SDS011;63097;51.872;4.460;2023-05-10T02:48:13;64.15;;;22.85;;
74593;SDS011;63097;51.872;4.460;2023-05-10T02:50:39;59.85;;;22.80;;
74593;SDS011;63097;51.872;4.460;2023-05-10T02:53:10;80.53;;;26.63;;
74593;SDS011;63097;51.872;4.460;2023-05-10T02:55:40;79.90;;;24.77;;
74593;SDS011;63097;51.872;4.460;2023-05-10T02:58:06;62.97;;;23.63;;
74593;SDS011;63097;51.872;4.460;2023-05-10T03:00:32;53.78;;;22.08;;
74593;SDS011;63097;51.872;4.460;2023-05-10T03:02:57;81.85;;;25.98;;
74593;SDS011;63097;51.872;4.460;2023-05-10T03:05:23;63.85;;;25.13;;
74593;SDS011;63097;51.872;4.460;2023-05-10T03:07:48;62.28;;;23.23;;
74593;SDS011;63097;51.872;4.460;2023-05-10T03:10:14;61.15;;;24.90;;
74593;SDS011;63097;51.872;4.460;2023-05-10T03:12:57;72.00;;;24.10;;
74593;SDS011;63097;51.872;4.460;2023-05-10T03:15:51;56.10;;;23.15;;
74593;SDS011;63097;51.872;4.460;2023-05-10T03:21:07;76.45;;;27.48;;
74593;SDS011;63097;51.872;4.460;2023-05-10T03:23:40;73.55;;;27.50;;
74593;SDS011;63097;51.872;4.460;2023-05-10T03:26:07;64.32;;;27.05;;
74593;SDS011;63097;51.872;4.460;2023-05-10T03:28:34;66.07;;;29.10;;
74593;SDS011;63097;51.872;4.460;2023-05-10T03:31:01;68.88;;;30.60;;
74593;SDS011;63097;51.872;4.460;2023-05-10T03:33:27;74.20;;;31.83;;
74593;SDS011;63097;51.872;4.460;2023-05-10T03:35:53;69.60;;;30.25;;
74593;SDS011;63097;51.872;4.460;2023-05-10T03:38:19;75.47;;;29.90;;
74593;SDS011;63097;51.872;4.460;2023-05-10T03:40:44;73.95;;;29.88;;
74593;SDS011;63097;51.872;4.460;2023-05-10T03:43:09;79.85;;;31.98;;
74593;SDS011;63097;51.872;4.460;2023-05-10T03:45:34;77.43;;;30.60;;
74593;SDS011;63097;51.872;4.460;2023-05-10T03:48:00;74.53;;;31.83;;
74593;SDS011;63097;51.872;4.460;2023-05-10T03:50:25;81.60;;;31.30;;
74593;SDS011;63097;51.872;4.460;2023-05-10T03:52:50;78.25;;;30.75;;
74593;SDS011;63097;51.872;4.460;2023-05-10T03:55:16;67.50;;;30.38;;
74593;SDS011;63097;51.872;4.460;2023-05-10T03:57:41;65.75;;;29.48;;
74593;SDS011;63097;51.872;4.460;2023-05-10T04:00:07;52.50;;;24.02;;
74593;SDS011;63097;51.872;4.460;2023-05-10T04:02:33;55.65;;;26.25;;
74593;SDS011;63097;51.872;4.460;2023-05-10T04:04:58;70.28;;;27.38;;
74593;SDS011;63097;51.872;4.460;2023-05-10T04:07:24;58.50;;;26.98;;
74593;SDS011;63097;51.872;4.460;2023-05-10T04:09:49;66.85;;;28.02;;
74593;SDS011;63097;51.872;4.460;2023-05-10T04:12:14;66.68;;;27.88;;
74593;SDS011;63097;51.872;4.460;2023-05-10T04:14:40;80.10;;;29.50;;
74593;SDS011;63097;51.872;4.460;2023-05-10T04:17:05;75.03;;;32.25;;
74593;SDS011;63097;51.872;4.460;2023-05-10T04:19:30;73.22;;;30.30;;
74593;SDS011;63097;51.872;4.460;2023-05-10T04:21:56;76.68;;;30.63;;
74593;SDS011;63097;51.872;4.460;2023-05-10T04:24:22;80.32;;;32.70;;
74593;SDS011;63097;51.872;4.460;2023-05-10T04:26:47;71.78;;;28.58;;
74593;SDS011;63097;51.872;4.460;2023-05-10T04:29:12;71.97;;;29.48;;
74593;SDS011;63097;51.872;4.460;2023-05-10T04:31:37;67.00;;;27.20;;
74593;SDS011;63097;51.872;4.460;2023-05-10T04:34:03;69.38;;;28.75;;
74593;SDS011;63097;51.872;4.460;2023-05-10T04:36:28;75.32;;;31.58;;
74593;SDS011;63097;51.872;4.460;2023-05-10T04:38:53;68.88;;;31.52;;
74593;SDS011;63097;51.872;4.460;2023-05-10T04:41:19;75.13;;;29.67;;
74593;SDS011;63097;51.872;4.460;2023-05-10T04:43:44;74.20;;;29.88;;
74593;SDS011;63097;51.872;4.460;2023-05-10T04:46:09;81.65;;;32.47;;
74593;SDS011;63097;51.872;4.460;2023-05-10T04:48:35;82.35;;;31.60;;
74593;SDS011;63097;51.872;4.460;2023-05-10T04:51:00;94.72;;;33.88;;
74593;SDS011;63097;51.872;4.460;2023-05-10T04:53:25;77.75;;;30.20;;
74593;SDS011;63097;51.872;4.460;2023-05-10T04:55:51;66.82;;;28.90;;
74593;SDS011;63097;51.872;4.460;2023-05-10T04:58:16;66.15;;;28.10;;
74593;SDS011;63097;51.872;4.460;2023-05-10T05:00:41;56.63;;;25.67;;
74593;SDS011;63097;51.872;4.460;2023-05-10T05:03:07;49.30;;;23.23;;
74593;SDS011;63097;51.872;4.460;2023-05-10T05:05:32;53.40;;;22.92;;
74593;SDS011;63097;51.872;4.460;2023-05-10T05:07:57;43.63;;;21.00;;
74593;SDS011;63097;51.872;4.460;2023-05-10T05:10:23;30.80;;;15.77;;
74593;SDS011;63097;51.872;4.460;2023-05-10T05:12:48;40.40;;;17.55;;
74593;SDS011;63097;51.872;4.460;2023-05-10T05:15:13;49.05;;;19.13;;
74593;SDS011;63097;51.872;4.460;2023-05-10T05:17:39;35.47;;;17.45;;
74593;SDS011;63097;51.872;4.460;2023-05-10T05:20:04;38.30;;;18.08;;
74593;SDS011;63097;51.872;4.460;2023-05-10T05:22:30;46.00;;;16.42;;
74593;SDS011;63097;51.872;4.460;2023-05-10T05:24:55;36.25;;;17.40;;
74593;SDS011;63097;51.872;4.460;2023-05-10T05:27:22;48.55;;;20.20;;
74593;SDS011;63097;51.872;4.460;2023-05-10T05:29:47;38.15;;;18.75;;
74593;SDS011;63097;51.872;4.460;2023-05-10T05:32:12;47.45;;;19.55;;
74593;SDS011;63097;51.872;4.460;2023-05-10T05:34:38;51.72;;;19.02;;
74593;SDS011;63097;51.872;4.460;2023-05-10T05:37:03;45.40;;;19.30;;
74593;SDS011;63097;51.872;4.460;2023-05-10T05:39:28;49.75;;;19.92;;
74593;SDS011;63097;51.872;4.460;2023-05-10T05:41:54;44.88;;;19.85;;
74593;SDS011;63097;51.872;4.460;2023-05-10T05:44:19;41.67;;;17.70;;
74593;SDS011;63097;51.872;4.460;2023-05-10T05:46:45;43.70;;;19.05;;
74593;SDS011;63097;51.872;4.460;2023-05-10T05:49:10;36.42;;;17.80;;
74593;SDS011;63097;51.872;4.460;2023-05-10T05:51:35;44.90;;;17.10;;
74593;SDS011;63097;51.872;4.460;2023-05-10T05:54:01;48.35;;;20.08;;
74593;SDS011;63097;51.872;4.460;2023-05-10T05:56:26;35.13;;;14.35;;
74593;SDS011;63097;51.872;4.460;2023-05-10T05:58:51;49.50;;;17.52;;
74593;SDS011;63097;51.872;4.460;2023-05-10T06:01:17;48.15;;;18.75;;
74593;SDS011;63097;51.872;4.460;2023-05-10T06:03:42;38.83;;;18.35;;
74593;SDS011;63097;51.872;4.460;2023-05-10T06:06:07;36.45;;;15.95;;
74593;SDS011;63097;51.872;4.460;2023-05-10T06:08:33;45.85;;;18.33;;
74593;SDS011;63097;51.872;4.460;2023-05-10T06:10:58;44.05;;;16.20;;
74593;SDS011;63097;51.872;4.460;2023-05-10T06:13:23;40.42;;;17.75;;
74593;SDS011;63097;51.872;4.460;2023-05-10T06:15:49;45.13;;;17.20;;
74593;SDS011;63097;51.872;4.460;2023-05-10T06:18:14;39.33;;;17.35;;
74593;SDS011;63097;51.872;4.460;2023-05-10T06:20:40;31.92;;;13.75;;
74593;SDS011;63097;51.872;4.460;2023-05-10T06:23:06;32.47;;;13.25;;
74593;SDS011;63097;51.872;4.460;2023-05-10T06:25:31;30.92;;;13.23;;
74593;SDS011;63097;51.872;4.460;2023-05-10T06:27:57;31.70;;;15.85;;
74593;SDS011;63097;51.872;4.460;2023-05-10T06:30:22;35.13;;;15.48;;
74593;SDS011;63097;51.872;4.460;2023-05-10T06:32:48;38.72;;;14.63;;
74593;SDS011;63097;51.872;4.460;2023-05-10T06:35:14;34.25;;;13.95;;
74593;SDS011;63097;51.872;4.460;2023-05-10T06:37:39;32.58;;;13.07;;
74593;SDS011;63097;51.872;4.460;2023-05-10T06:40:05;30.90;;;14.27;;
74593;SDS011;63097;51.872;4.460;2023-05-10T06:42:31;41.00;;;18.52;;
74593;SDS011;63097;51.872;4.460;2023-05-10T06:44:56;37.78;;;18.08;;
74593;SDS011;63097;51.872;4.460;2023-05-10T06:47:21;36.63;;;17.13;;
74593;SDS011;63097;51.872;4.460;2023-05-10T06:49:47;34.75;;;16.98;;
74593;SDS011;63097;51.872;4.460;2023-05-10T06:52:12;36.38;;;16.77;;
74593;SDS011;63097;51.872;4.460;2023-05-10T06:54:37;39.38;;;14.65;;
74593;SDS011;63097;51.872;4.460;2023-05-10T06:57:02;31.50;;;14.52;;
74593;SDS011;63097;51.872;4.460;2023-05-10T06:59:28;31.42;;;12.63;;
74593;SDS011;63097;51.872;4.460;2023-05-10T07:01:53;36.42;;;12.15;;
74593;SDS011;63097;51.872;4.460;2023-05-10T07:04:18;24.13;;;11.80;;
74593;SDS011;63097;51.872;4.460;2023-05-10T07:06:44;24.45;;;11.55;;
74593;SDS011;63097;51.872;4.460;2023-05-10T07:09:09;24.45;;;12.30;;
74593;SDS011;63097;51.872;4.460;2023-05-10T07:11:35;19.73;;;11.15;;
74593;SDS011;63097;51.872;4.460;2023-05-10T07:14:00;24.40;;;12.38;;
74593;SDS011;63097;51.872;4.460;2023-05-10T07:16:25;24.52;;;13.05;;
74593;SDS011;63097;51.872;4.460;2023-05-10T07:18:51;28.17;;;12.90;;
74593;SDS011;63097;51.872;4.460;2023-05-10T07:21:16;30.30;;;12.75;;
74593;SDS011;63097;51.872;4.460;2023-05-10T07:23:41;20.48;;;11.85;;
74593;SDS011;63097;51.872;4.460;2023-05-10T07:26:06;25.30;;;12.10;;
74593;SDS011;63097;51.872;4.460;2023-05-10T07:28:32;27.30;;;11.38;;
74593;SDS011;63097;51.872;4.460;2023-05-10T07:30:57;24.38;;;11.50;;
74593;SDS011;63097;51.872;4.460;2023-05-10T07:33:22;18.65;;;10.60;;
74593;SDS011;63097;51.872;4.460;2023-05-10T07:35:49;21.90;;;10.80;;
74593;SDS011;63097;51.872;4.460;2023-05-10T07:38:15;18.85;;;11.23;;
74593;SDS011;63097;51.872;4.460;2023-05-10T07:40:40;20.67;;;11.43;;
74593;SDS011;63097;51.872;4.460;2023-05-10T07:43:05;24.27;;;11.63;;
74593;SDS011;63097;51.872;4.460;2023-05-10T07:45:31;27.67;;;11.48;;
74593;SDS011;63097;51.872;4.460;2023-05-10T07:47:56;23.27;;;11.38;;
74593;SDS011;63097;51.872;4.460;2023-05-10T07:50:21;22.20;;;11.93;;
74593;SDS011;63097;51.872;4.460;2023-05-10T07:52:47;20.77;;;12.35;;
74593;SDS011;63097;51.872;4.460;2023-05-10T07:55:12;24.30;;;11.95;;
74593;SDS011;63097;51.872;4.460;2023-05-10T07:57:38;19.15;;;11.80;;
74593;SDS011;63097;51.872;4.460;2023-05-10T08:00:03;19.77;;;8.85;;
74593;SDS011;63097;51.872;4.460;2023-05-10T08:02:28;19.35;;;9.65;;
74593;SDS011;63097;51.872;4.460;2023-05-10T08:04:54;15.00;;;8.63;;
74593;SDS011;63097;51.872;4.460;2023-05-10T08:07:19;18.02;;;8.65;;
74593;SDS011;63097;51.872;4.460;2023-05-10T08:09:44;12.23;;;8.20;;
74593;SDS011;63097;51.872;4.460;2023-05-10T08:12:10;17.45;;;7.78;;
74593;SDS011;63097;51.872;4.460;2023-05-10T08:14:35;12.48;;;6.13;;
74593;SDS011;63097;51.872;4.460;2023-05-10T08:17:00;17.40;;;6.53;;
74593;SDS011;63097;51.872;4.460;2023-05-10T08:19:26;10.07;;;6.03;;
74593;SDS011;63097;51.872;4.460;2023-05-10T08:21:51;10.38;;;5.72;;
74593;SDS011;63097;51.872;4.460;2023-05-10T08:24:17;12.35;;;6.53;;
74593;SDS011;63097;51.872;4.460;2023-05-10T08:26:42;9.73;;;5.72;;
74593;SDS011;63097;51.872;4.460;2023-05-10T08:29:07;12.73;;;6.45;;
74593;SDS011;63097;51.872;4.460;2023-05-10T08:31:33;7.47;;;5.45;;
74593;SDS011;63097;51.872;4.460;2023-05-10T08:33:58;13.23;;;5.68;;
74593;SDS011;63097;51.872;4.460;2023-05-10T08:36:23;9.63;;;6.05;;
74593;SDS011;63097;51.872;4.460;2023-05-10T08:38:52;11.52;;;6.72;;
74593;SDS011;63097;51.872;4.460;2023-05-10T08:41:21;12.40;;;5.93;;
74593;SDS011;63097;51.872;4.460;2023-05-10T08:43:49;12.23;;;6.53;;
74593;SDS011;63097;51.872;4.460;2023-05-10T08:46:16;9.32;;;6.20;;
74593;SDS011;63097;51.872;4.460;2023-05-10T08:48:43;14.57;;;5.80;;
74593;SDS011;63097;51.872;4.460;2023-05-10T08:51:09;8.57;;;5.45;;
74593;SDS011;63097;51.872;4.460;2023-05-10T08:53:42;13.52;;;5.60;;
74593;SDS011;63097;51.872;4.460;2023-05-10T08:56:08;13.60;;;5.65;;
74593;SDS011;63097;51.872;4.460;2023-05-10T08:58:34;10.23;;;5.50;;
74593;SDS011;63097;51.872;4.460;2023-05-10T09:00:59;7.43;;;5.18;;
74593;SDS011;63097;51.872;4.460;2023-05-10T09:03:26;10.30;;;5.18;;
74593;SDS011;63097;51.872;4.460;2023-05-10T09:05:51;6.80;;;5.13;;
74593;SDS011;63097;51.872;4.460;2023-05-10T09:08:17;7.05;;;5.00;;
74593;SDS011;63097;51.872;4.460;2023-05-10T09:10:43;7.78;;;4.85;;
74593;SDS011;63097;51.872;4.460;2023-05-10T09:13:10;7.60;;;4.68;;
74593;SDS011;63097;51.872;4.460;2023-05-10T09:15:35;7.88;;;4.80;;
74593;SDS011;63097;51.872;4.460;2023-05-10T09:18:01;8.25;;;4.63;;
74593;SDS011;63097;51.872;4.460;2023-05-10T09:20:26;8.52;;;4.68;;
74593;SDS011;63097;51.872;4.460;2023-05-10T09:22:51;8.25;;;4.60;;
74593;SDS011;63097;51.872;4.460;2023-05-10T09:25:17;12.35;;;5.22;;
74593;SDS011;63097;51.872;4.460;2023-05-10T09:27:46;10.43;;;5.05;;
74593;SDS011;63097;51.872;4.460;2023-05-10T09:30:16;7.20;;;4.60;;
74593;SDS011;63097;51.872;4.460;2023-05-10T09:32:48;8.52;;;5.03;;
74593;SDS011;63097;51.872;4.460;2023-05-10T09:35:14;12.38;;;5.60;;
74593;SDS011;63097;51.872;4.460;2023-05-10T09:37:42;6.38;;;5.03;;
74593;SDS011;63097;51.872;4.460;2023-05-10T09:40:16;6.47;;;4.47;;
74593;SDS011;63097;51.872;4.460;2023-05-10T09:42:43;8.52;;;4.70;;
74593;SDS011;63097;51.872;4.460;2023-05-10T09:45:23;15.85;;;5.97;;
74593;SDS011;63097;51.872;4.460;2023-05-10T09:47:50;12.25;;;5.22;;
74593;SDS011;63097;51.872;4.460;2023-05-10T09:50:15;13.82;;;6.22;;
74593;SDS011;63097;51.872;4.460;2023-05-10T09:52:48;16.25;;;6.38;;
74593;SDS011;63097;51.872;4.460;2023-05-10T09:55:15;12.75;;;7.28;;
74593;SDS011;63097;51.872;4.460;2023-05-10T09:57:41;18.52;;;7.13;;
74593;SDS011;63097;51.872;4.460;2023-05-10T10:00:07;15.95;;;7.10;;
74593;SDS011;63097;51.872;4.460;2023-05-10T10:02:32;15.43;;;7.18;;
74593;SDS011;63097;51.872;4.460;2023-05-10T10:04:59;15.63;;;7.90;;
74593;SDS011;63097;51.872;4.460;2023-05-10T10:07:26;21.25;;;10.43;;
74593;SDS011;63097;51.872;4.460;2023-05-10T10:09:51;20.17;;;11.48;;
74593;SDS011;63097;51.872;4.460;2023-05-10T10:12:18;17.70;;;10.88;;
74593;SDS011;63097;51.872;4.460;2023-05-10T10:14:44;23.67;;;12.07;;
74593;SDS011;63097;51.872;4.460;2023-05-10T10:17:13;21.55;;;11.27;;
74593;SDS011;63097;51.872;4.460;2023-05-10T10:19:39;22.85;;;12.00;;
74593;SDS011;63097;51.872;4.460;2023-05-10T10:22:06;20.60;;;12.80;;
74593;SDS011;63097;51.872;4.460;2023-05-10T10:24:31;18.17;;;12.25;;
74593;SDS011;63097;51.872;4.460;2023-05-10T10:26:58;23.73;;;12.55;;
74593;SDS011;63097;51.872;4.460;2023-05-10T10:29:36;21.17;;;11.10;;
74593;SDS011;63097;51.872;4.460;2023-05-10T10:32:19;16.17;;;10.00;;
74593;SDS011;63097;51.872;4.460;2023-05-10T10:34:52;18.25;;;9.93;;
74593;SDS011;63097;51.872;4.460;2023-05-10T10:37:19;24.55;;;10.35;;
74593;SDS011;63097;51.872;4.460;2023-05-10T10:39:44;15.30;;;9.07;;
74593;SDS011;63097;51.872;4.460;2023-05-10T10:42:13;16.83;;;8.05;;
74593;SDS011;63097;51.872;4.460;2023-05-10T10:44:38;13.57;;;7.70;;
74593;SDS011;63097;51.872;4.460;2023-05-10T10:49:33;14.52;;;6.80;;
74593;SDS011;63097;51.872;4.460;2023-05-10T10:52:22;14.05;;;5.60;;
74593;SDS011;63097;51.872;4.460;2023-05-10T10:57:18;8.82;;;5.38;;
74593;SDS011;63097;51.872;4.460;2023-05-10T10:59:45;9.65;;;5.35;;
74593;SDS011;63097;51.872;4.460;2023-05-10T11:02:10;12.43;;;5.55;;
74593;SDS011;63097;51.872;4.460;2023-05-10T11:04:55;11.25;;;5.05;;
74593;SDS011;63097;51.872;4.460;2023-05-10T11:07:20;11.45;;;4.95;;
74593;SDS011;63097;51.872;4.460;2023-05-10T11:09:46;10.15;;;4.30;;
74593;SDS011;63097;51.872;4.460;2023-05-10T11:12:12;7.63;;;4.18;;
74593;SDS011;63097;51.872;4.460;2023-05-10T11:14:37;7.82;;;4.28;;
74593;SDS011;63097;51.872;4.460;2023-05-10T11:17:16;8.55;;;4.63;;
74593;SDS011;63097;51.872;4.460;2023-05-10T11:20:08;8.95;;;4.45;;
74593;SDS011;63097;51.872;4.460;2023-05-10T11:22:49;9.70;;;4.68;;
74593;SDS011;63097;51.872;4.460;2023-05-10T11:25:15;8.85;;;4.95;;
74593;SDS011;63097;51.872;4.460;2023-05-10T11:27:41;9.48;;;4.95;;
74593;SDS011;63097;51.872;4.460;2023-05-10T11:30:06;9.82;;;4.05;;
74593;SDS011;63097;51.872;4.460;2023-05-10T11:32:34;5.05;;;4.05;;
74593;SDS011;63097;51.872;4.460;2023-05-10T11:35:09;7.63;;;3.80;;
74593;SDS011;63097;51.872;4.460;2023-05-10T11:37:35;10.98;;;4.20;;
74593;SDS011;63097;51.872;4.460;2023-05-10T11:40:01;10.85;;;4.10;;
74593;SDS011;63097;51.872;4.460;2023-05-10T11:42:29;9.95;;;4.25;;
74593;SDS011;63097;51.872;4.460;2023-05-10T11:44:54;11.85;;;4.32;;
74593;SDS011;63097;51.872;4.460;2023-05-10T11:47:20;7.65;;;4.30;;
74593;SDS011;63097;51.872;4.460;2023-05-10T11:49:45;6.85;;;3.67;;
74593;SDS011;63097;51.872;4.460;2023-05-10T11:52:11;10.82;;;3.58;;
74593;SDS011;63097;51.872;4.460;2023-05-10T11:54:36;9.00;;;4.10;;
74593;SDS011;63097;51.872;4.460;2023-05-10T11:57:02;6.97;;;3.15;;
74593;SDS011;63097;51.872;4.460;2023-05-10T11:59:28;12.25;;;3.92;;
74593;SDS011;63097;51.872;4.460;2023-05-10T12:01:54;8.43;;;3.17;;
74593;SDS011;63097;51.872;4.460;2023-05-10T12:04:19;8.27;;;4.40;;
74593;SDS011;63097;51.872;4.460;2023-05-10T12:06:45;6.97;;;2.83;;
74593;SDS011;63097;51.872;4.460;2023-05-10T12:09:10;13.95;;;3.50;;
74593;SDS011;63097;51.872;4.460;2023-05-10T12:11:36;6.28;;;3.55;;
74593;SDS011;63097;51.872;4.460;2023-05-10T12:14:05;9.02;;;3.53;;
74593;SDS011;63097;51.872;4.460;2023-05-10T12:16:31;6.45;;;3.58;;
74593;SDS011;63097;51.872;4.460;2023-05-10T12:18:57;7.57;;;2.85;;
74593;SDS011;63097;51.872;4.460;2023-05-10T12:21:23;6.68;;;2.83;;
74593;SDS011;63097;51.872;4.460;2023-05-10T12:23:52;6.43;;;2.78;;
74593;SDS011;63097;51.872;4.460;2023-05-10T12:26:22;8.98;;;2.70;;
74593;SDS011;63097;51.872;4.460;2023-05-10T12:28:50;8.27;;;3.08;;
74593;SDS011;63097;51.872;4.460;2023-05-10T12:31:15;13.10;;;3.42;;
74593;SDS011;63097;51.872;4.460;2023-05-10T12:33:41;5.63;;;3.45;;
74593;SDS011;63097;51.872;4.460;2023-05-10T12:36:11;9.25;;;4.55;;
74593;SDS011;63097;51.872;4.460;2023-05-10T12:38:39;13.38;;;4.00;;
74593;SDS011;63097;51.872;4.460;2023-05-10T12:41:12;12.23;;;4.43;;
74593;SDS011;63097;51.872;4.460;2023-05-10T12:43:39;10.18;;;3.97;;
74593;SDS011;63097;51.872;4.460;2023-05-10T12:46:09;13.40;;;3.80;;
74593;SDS011;63097;51.872;4.460;2023-05-10T12:48:39;11.47;;;3.50;;
74593;SDS011;63097;51.872;4.460;2023-05-10T12:51:05;9.32;;;3.47;;
74593;SDS011;63097;51.872;4.460;2023-05-10T12:53:31;8.48;;;3.65;;
74593;SDS011;63097;51.872;4.460;2023-05-10T12:55:57;7.70;;;3.13;;
74593;SDS011;63097;51.872;4.460;2023-05-10T12:58:22;7.75;;;2.90;;
74593;SDS011;63097;51.872;4.460;2023-05-10T13:00:47;8.55;;;2.92;;
74593;SDS011;63097;51.872;4.460;2023-05-10T13:03:13;11.52;;;2.80;;
74593;SDS011;63097;51.872;4.460;2023-05-10T13:05:38;7.30;;;2.65;;
74593;SDS011;63097;51.872;4.460;2023-05-10T13:08:04;10.07;;;3.03;;
74593;SDS011;63097;51.872;4.460;2023-05-10T13:10:30;7.47;;;2.60;;
74593;SDS011;63097;51.872;4.460;2023-05-10T13:12:56;5.50;;;2.40;;
74593;SDS011;63097;51.872;4.460;2023-05-10T13:15:21;12.00;;;2.85;;
74593;SDS011;63097;51.872;4.460;2023-05-10T13:17:47;14.77;;;3.42;;
74593;SDS011;63097;51.872;4.460;2023-05-10T13:20:12;10.93;;;3.35;;
74593;SDS011;63097;51.872;4.460;2023-05-10T13:22:38;6.55;;;2.45;;
74593;SDS011;63097;51.872;4.460;2023-05-10T13:25:03;5.10;;;2.20;;
74593;SDS011;63097;51.872;4.460;2023-05-10T13:27:28;4.63;;;1.90;;
74593;SDS011;63097;51.872;4.460;2023-05-10T13:29:54;10.10;;;2.60;;
74593;SDS011;63097;51.872;4.460;2023-05-10T13:32:19;6.55;;;2.20;;
74593;SDS011;63097;51.872;4.460;2023-05-10T13:34:44;6.70;;;2.15;;
74593;SDS011;63097;51.872;4.460;2023-05-10T13:37:10;3.00;;;2.00;;
74593;SDS011;63097;51.872;4.460;2023-05-10T13:39:35;6.70;;;2.08;;
74593;SDS011;63097;51.872;4.460;2023-05-10T13:42:00;5.95;;;1.73;;
74593;SDS011;63097;51.872;4.460;2023-05-10T13:44:26;5.43;;;2.17;;
74593;SDS011;63097;51.872;4.460;2023-05-10T13:46:51;4.07;;;1.92;;
74593;SDS011;63097;51.872;4.460;2023-05-10T13:49:16;6.43;;;2.25;;
74593;SDS011;63097;51.872;4.460;2023-05-10T13:51:42;15.35;;;2.83;;
74593;SDS011;63097;51.872;4.460;2023-05-10T13:54:08;7.95;;;2.10;;
74593;SDS011;63097;51.872;4.460;2023-05-10T13:56:33;8.18;;;2.80;;
74593;SDS011;63097;51.872;4.460;2023-05-10T13:58:59;7.03;;;2.58;;
74593;SDS011;63097;51.872;4.460;2023-05-10T14:01:24;9.40;;;2.50;;
74593;SDS011;63097;51.872;4.460;2023-05-10T14:03:49;5.07;;;2.20;;
74593;SDS011;63097;51.872;4.460;2023-05-10T14:06:14;8.63;;;2.70;;
74593;SDS011;63097;51.872;4.460;2023-05-10T14:08:40;6.88;;;2.42;;
74593;SDS011;63097;51.872;4.460;2023-05-10T14:11:05;10.00;;;2.67;;
74593;SDS011;63097;51.872;4.460;2023-05-10T14:13:30;5.47;;;2.50;;
74593;SDS011;63097;51.872;4.460;2023-05-10T14:15:56;7.55;;;2.58;;
74593;SDS011;63097;51.872;4.460;2023-05-10T14:18:21;10.80;;;2.33;;
74593;SDS011;63097;51.872;4.460;2023-05-10T14:20:46;11.57;;;3.15;;
74593;SDS011;63097;51.872;4.460;2023-05-10T14:23:12;8.27;;;3.42;;
74593;SDS011;63097;51.872;4.460;2023-05-10T14:25:38;5.28;;;3.20;;
74593;SDS011;63097;51.872;4.460;2023-05-10T14:28:05;8.00;;;2.97;;
74593;SDS011;63097;51.872;4.460;2023-05-10T14:30:31;6.43;;;2.78;;
74593;SDS011;63097;51.872;4.460;2023-05-10T14:32:56;6.50;;;2.72;;
74593;SDS011;63097;51.872;4.460;2023-05-10T14:35:21;9.93;;;3.70;;
74593;SDS011;63097;51.872;4.460;2023-05-10T14:37:47;10.38;;;3.88;;
74593;SDS011;63097;51.872;4.460;2023-05-10T14:40:12;6.43;;;3.25;;
74593;SDS011;63097;51.872;4.460;2023-05-10T14:42:37;9.20;;;3.78;;
74593;SDS011;63097;51.872;4.460;2023-05-10T14:45:03;9.05;;;4.00;;
74593;SDS011;63097;51.872;4.460;2023-05-10T14:47:29;12.30;;;4.28;;
74593;SDS011;63097;51.872;4.460;2023-05-10T14:49:54;11.43;;;3.67;;
74593;SDS011;63097;51.872;4.460;2023-05-10T14:52:19;9.15;;;3.92;;
74593;SDS011;63097;51.872;4.460;2023-05-10T14:54:45;11.15;;;4.40;;